Taree, New South Wales

8:24 PM AEDT on October 23, 2014 (GMT +1100)
Taree | Change Station
CLOSE
Current Station
Airport
Location: Taree,
Elevation: 39 ft
Nearby Weather Stations

Elev 39 ft 31.89 °S, 152.51 °E | Updated 24 minutes ago

Clear
Clear
68 °F
Feels Like 68 °F
N
4
Wind Variable Wind from East
Gusts mph

Today
High -- | Low -- °F
--% Chance of Precip.
Yesterday
High -- | Low -- °F
Precip. -- in
6:01 AM 7:07 PM
Waning Crescent, 0% visible
Pressure 30.06 in
Visibility -9999.0 miles
Clouds
Dew Point 61 °F
Humidity 78%
Rainfall 0.00 in
Snow Depth Not available.
UV Not available.
Pollen Not available.
Air Quality Not available.
Flu Activity Not available.
METAR YTRE 230900Z AUTO 09003KT //// // ////// 20/16 Q1018

More Conditions Fewer Conditions

Pressure 30.06 in
Visibility -9999.0 miles
Clouds
Dew Point 61 °F
Humidity 78%
Rainfall 0.00 in
Snow Depth Not available.
UV Not available.
Pollen Not available.
Air Quality Not available.
Flu Activity Not available.
METAR YTRE 230900Z AUTO 09003KT //// // ////// 20/16 Q1018

More Conditions Fewer Conditions

10-Day Weather Forecast

Almanac

Astronomy

Oct. 23, 2014 Rise Set
Actual Time 6:01 AM AEDT 7:07 PM AEDT
Civil Twilight 5:36 AM AEDT 7:32 PM AEDT
Nautical Twilight 5:06 AM AEDT 8:02 PM AEDT
Astronomical Twilight 4:35 AM AEDT 8:33 PM AEDT
Moon 5:28 AM AEDT 6:29 PM AEDT
Length of Visible Light 13h 55m
Length of Day
13h 05m
Tomorrow will be 1m 51s longer.
Waning Crescent, 0% of the Moon is Illuminated
Today
Waning Crescent
Oct 23
New
Oct 30
First Quarter
Nov 6
Full
Nov 14
Last Quarter

Yesterday's Extremes

Country Highs Country Lows

Community

WunderPhotos

Upload Photos

1,764,199 photos uploaded!

Nearby

Snow Depth

Not available.

Earthquake Activity

City Distance Mag. Time & Date
No recent earthquake activity has been reported nearby.
Minimum magnitude displayed is 2.5.

Coastal Water Temperatures

Place Temperature
No Stations Reporting

Nearby Weather Stations